Air Navigation Services of Czech Republic
Airport: LKBC Updated:  28.10.2020 04:55:25  UTC
 METAR LKBC 28.10. 05:00 ...
METAR LKBC 280500Z AUTO 09005KT 0100 FG VV001 01/00 Q1014=